createdAt,value
2022-10-17T00:01:15.526Z,22.45
2022-10-17T00:03:43.991Z,20.67
2022-10-17T00:06:16.017Z,18.63
2022-10-17T00:08:45.596Z,17.83
2022-10-17T00:11:20.638Z,17.65
2022-10-17T00:13:51.190Z,18.65
2022-10-17T00:16:26.224Z,19.77
2022-10-17T00:18:55.386Z,22.17
2022-10-17T00:21:25.456Z,22.73
2022-10-17T00:23:55.769Z,20.08
2022-10-17T00:26:25.721Z,20.70
2022-10-17T00:28:54.972Z,19.00
2022-10-17T00:31:25.239Z,20.38
2022-10-17T00:33:54.364Z,19.55
2022-10-17T00:36:25.607Z,25.13
2022-10-17T00:38:56.765Z,17.80
2022-10-17T00:41:30.041Z,19.35
2022-10-17T00:44:01.444Z,18.83
2022-10-17T00:46:32.858Z,20.65
2022-10-17T00:49:06.761Z,18.95
2022-10-17T00:51:41.187Z,21.10
2022-10-17T00:54:11.069Z,22.00
2022-10-17T00:56:40.941Z,20.30
2022-10-17T00:59:12.331Z,23.70
2022-10-17T01:01:42.706Z,19.27
2022-10-17T01:04:11.473Z,20.23
2022-10-17T01:06:39.876Z,20.33
2022-10-17T01:09:08.277Z,19.10
2022-10-17T01:11:46.374Z,19.98
2022-10-17T01:14:25.235Z,18.45
2022-10-17T01:17:04.262Z,19.55
2022-10-17T01:20:04.097Z,17.88
2022-10-17T01:22:42.212Z,19.83
2022-10-17T01:25:30.509Z,20.75
2022-10-17T01:28:19.960Z,19.92
2022-10-17T01:31:07.785Z,17.63
2022-10-17T01:33:56.122Z,16.73
2022-10-17T01:36:38.748Z,19.00
2022-10-17T01:39:18.428Z,16.90
2022-10-17T01:41:53.982Z,20.92
2022-10-17T01:44:30.772Z,19.73
2022-10-17T01:47:06.699Z,23.85
2022-10-17T01:49:38.920Z,23.40
2022-10-17T01:52:13.659Z,19.48
2022-10-17T01:54:46.755Z,25.40
2022-10-17T01:57:31.116Z,16.90
2022-10-17T02:00:00.950Z,22.50
2022-10-17T02:02:32.240Z,20.25
2022-10-17T02:05:03.069Z,19.48
2022-10-17T02:07:31.484Z,21.27
2022-10-17T02:09:59.882Z,20.52
2022-10-17T02:12:44.577Z,18.98
2022-10-17T02:15:51.163Z,17.10
2022-10-17T02:18:45.613Z,20.95
2022-10-17T02:21:25.734Z,18.00
2022-10-17T02:23:59.231Z,21.02
2022-10-17T02:26:33.811Z,23.98
2022-10-17T02:29:11.245Z,22.45
2022-10-17T02:31:46.170Z,18.92
2022-10-17T02:34:22.095Z,19.60
2022-10-17T02:36:56.945Z,19.63
2022-10-17T02:39:28.462Z,17.60
2022-10-17T02:42:00.200Z,18.92
2022-10-17T02:44:30.136Z,19.13
2022-10-17T02:47:06.525Z,17.80
2022-10-17T02:49:40.950Z,22.05
2022-10-17T02:52:14.264Z,21.13
2022-10-17T02:54:48.210Z,22.15
2022-10-17T02:57:23.557Z,16.60
2022-10-17T02:59:52.510Z,21.85
2022-10-17T03:02:20.884Z,15.20
2022-10-17T03:04:50.616Z,18.58
2022-10-17T03:07:19.043Z,17.83
2022-10-17T03:09:47.393Z,22.88
2022-10-17T03:12:15.725Z,23.67
2022-10-17T03:14:44.056Z,19.40
2022-10-17T03:17:12.396Z,22.30
2022-10-17T03:19:40.771Z,24.10
2022-10-17T03:22:10.955Z,18.35
2022-10-17T03:24:39.251Z,20.23
2022-10-17T03:27:07.598Z,20.05
2022-10-17T03:29:35.914Z,24.85
2022-10-17T03:32:04.319Z,20.73
2022-10-17T03:34:32.720Z,19.75
2022-10-17T03:37:01.108Z,22.20
2022-10-17T03:39:30.943Z,20.27
2022-10-17T03:41:59.419Z,20.05
2022-10-17T03:44:27.746Z,22.23
2022-10-17T03:46:56.067Z,21.92
2022-10-17T03:49:24.451Z,18.23
2022-10-17T03:51:52.852Z,21.95
2022-10-17T03:54:21.200Z,19.90
2022-10-17T03:56:50.930Z,21.00
2022-10-17T03:59:19.428Z,21.88
2022-10-17T04:01:48.113Z,22.13
2022-10-17T04:04:16.532Z,19.55
2022-10-17T04:06:44.880Z,18.48
2022-10-17T04:09:13.230Z,18.30
2022-10-17T04:11:41.583Z,18.70
2022-10-17T04:14:11.811Z,20.95
2022-10-17T04:16:40.776Z,20.10
2022-10-17T04:19:09.133Z,19.15
2022-10-17T04:21:37.910Z,20.40
2022-10-17T04:24:07.159Z,20.95
2022-10-17T04:26:35.533Z,20.45
2022-10-17T04:29:03.882Z,20.50
2022-10-17T04:31:33.665Z,19.10
2022-10-17T04:34:02.057Z,17.10
2022-10-17T04:36:30.417Z,20.38
2022-10-17T04:38:58.792Z,19.90
2022-10-17T04:41:27.140Z,17.80
2022-10-17T04:43:55.470Z,19.65
2022-10-17T04:46:24.056Z,19.95
2022-10-17T04:48:55.136Z,18.27
2022-10-17T04:51:25.936Z,17.75
2022-10-17T04:53:55.056Z,22.63
2022-10-17T04:56:25.800Z,16.10
2022-10-17T04:58:54.446Z,21.17
2022-10-17T05:01:24.836Z,15.68
2022-10-17T05:03:56.032Z,18.90
2022-10-17T05:06:27.994Z,19.40
2022-10-17T05:08:57.519Z,18.25
2022-10-17T05:11:28.598Z,17.85
2022-10-17T05:13:59.253Z,21.48
2022-10-17T05:16:29.607Z,17.92
2022-10-17T05:19:00.179Z,14.20
2022-10-17T05:21:30.490Z,19.23
2022-10-17T05:23:59.227Z,17.90
2022-10-17T05:26:27.933Z,18.90
2022-10-17T05:28:56.327Z,18.02
2022-10-17T05:31:24.816Z,17.92
2022-10-17T05:33:53.181Z,15.55
2022-10-17T05:36:22.968Z,19.00
2022-10-17T05:38:51.993Z,15.20
2022-10-17T05:41:21.270Z,16.00
2022-10-17T05:43:50.379Z,18.30
2022-10-17T05:46:19.029Z,16.58
2022-10-17T05:48:47.502Z,22.02
2022-10-17T05:51:16.047Z,16.40
2022-10-17T05:53:45.797Z,16.85
2022-10-17T05:56:14.897Z,16.70
2022-10-17T05:58:50.231Z,19.23
2022-10-17T06:01:20.319Z,14.07
2022-10-17T06:03:49.063Z,16.35
2022-10-17T06:06:19.825Z,20.17
2022-10-17T06:08:49.570Z,15.98
2022-10-17T06:11:17.950Z,17.25
2022-10-17T06:13:46.310Z,15.52
2022-10-17T06:16:14.709Z,12.45
2022-10-17T06:18:43.150Z,15.45
2022-10-17T06:21:13.084Z,16.00
2022-10-17T06:23:41.556Z,16.55
2022-10-17T06:26:11.582Z,12.40
2022-10-17T06:28:40.099Z,12.00
2022-10-17T06:31:10.314Z,15.38
2022-10-17T06:33:39.098Z,12.88
2022-10-17T06:36:11.261Z,15.55
2022-10-17T06:38:40.073Z,12.75
2022-10-17T06:41:13.778Z,12.15
2022-10-17T06:43:46.288Z,12.82
2022-10-17T06:46:15.805Z,15.57
2022-10-17T06:48:44.172Z,10.20
2022-10-17T06:51:13.126Z,14.32
2022-10-17T06:53:42.312Z,15.13
2022-10-17T06:56:12.888Z,12.10
2022-10-17T06:58:42.590Z,13.63
2022-10-17T07:01:13.180Z,11.70
2022-10-17T07:03:43.680Z,16.63
2022-10-17T07:06:12.406Z,14.55
2022-10-17T07:08:44.724Z,11.88
2022-10-17T07:11:17.847Z,11.32
2022-10-17T07:13:46.660Z,12.95
2022-10-17T07:16:16.777Z,12.20
2022-10-17T07:18:47.061Z,14.07
2022-10-17T07:21:15.495Z,15.02
2022-10-17T07:23:43.899Z,12.63
2022-10-17T07:26:17.454Z,12.40
2022-10-17T07:28:47.974Z,13.13
2022-10-17T07:31:19.676Z,10.93
2022-10-17T07:33:48.134Z,15.50
2022-10-17T07:36:17.678Z,13.27
2022-10-17T07:38:46.201Z,12.95
2022-10-17T07:41:19.268Z,12.45
2022-10-17T07:43:50.591Z,12.93
2022-10-17T07:46:18.978Z,12.60
2022-10-17T07:48:47.459Z,12.85
2022-10-17T07:51:16.869Z,16.25
2022-10-17T07:53:48.704Z,13.68
2022-10-17T07:56:19.122Z,13.10
2022-10-17T07:58:48.383Z,12.65
2022-10-17T08:01:17.683Z,14.10
2022-10-17T08:03:47.217Z,27.58
2022-10-17T08:06:15.830Z,12.63
2022-10-17T08:08:45.248Z,15.25
2022-10-17T08:11:15.883Z,13.85
2022-10-17T08:13:45.757Z,13.73
2022-10-17T08:16:15.187Z,13.52
2022-10-17T08:18:44.501Z,12.30
2022-10-17T08:21:14.332Z,13.07
2022-10-17T08:23:43.064Z,12.52
2022-10-17T08:26:13.627Z,12.98
2022-10-17T08:28:42.602Z,13.77
2022-10-17T08:31:15.777Z,14.77
2022-10-17T08:33:44.283Z,13.07
2022-10-17T08:36:15.959Z,14.02
2022-10-17T08:38:48.002Z,14.25
2022-10-17T08:41:38.496Z,13.05
2022-10-17T08:44:19.318Z,13.13
2022-10-17T08:46:53.512Z,13.48
2022-10-17T08:49:33.798Z,13.77
2022-10-17T08:52:12.307Z,12.93
2022-10-17T08:54:46.227Z,13.93
2022-10-17T08:57:16.365Z,14.43
2022-10-17T08:59:46.895Z,15.45
2022-10-17T09:02:40.377Z,13.20
2022-10-17T09:05:40.343Z,15.20
2022-10-17T09:08:25.845Z,13.73
2022-10-17T09:10:59.498Z,13.25
2022-10-17T09:13:49.523Z,14.15
2022-10-17T09:16:45.719Z,13.27
2022-10-17T09:19:24.385Z,15.27
2022-10-17T09:22:00.041Z,12.57
2022-10-17T09:24:47.443Z,17.08
2022-10-17T09:27:24.997Z,13.75
2022-10-17T09:30:17.181Z,15.00
2022-10-17T09:33:00.758Z,13.25
2022-10-17T09:35:31.424Z,12.77
2022-10-17T09:38:00.219Z,15.32
2022-10-17T09:40:35.437Z,16.13
2022-10-17T09:43:08.836Z,12.98
2022-10-17T09:45:47.541Z,13.45
2022-10-17T09:48:26.522Z,14.27
2022-10-17T09:51:14.694Z,14.95
2022-10-17T09:53:51.488Z,14.43
2022-10-17T09:56:21.311Z,17.65
2022-10-17T09:58:54.529Z,17.17
2022-10-17T10:01:26.141Z,17.75
2022-10-17T10:04:11.180Z,16.77
2022-10-17T10:06:42.503Z,14.93
2022-10-17T10:09:31.698Z,15.30
2022-10-17T10:12:04.583Z,17.50
2022-10-17T10:14:35.556Z,13.98
2022-10-17T10:17:06.219Z,15.73
2022-10-17T10:19:36.806Z,12.85
2022-10-17T10:22:20.078Z,13.98
2022-10-17T10:25:07.572Z,37.28
2022-10-17T10:27:36.802Z,17.20
2022-10-17T10:30:06.492Z,16.52
2022-10-17T10:32:38.189Z,16.20
2022-10-17T10:35:18.999Z,16.55
2022-10-17T10:37:52.902Z,13.02
2022-10-17T10:40:25.811Z,14.02
2022-10-17T10:43:02.526Z,13.55
2022-10-17T10:45:48.675Z,13.48
2022-10-17T10:48:23.545Z,12.07
2022-10-17T10:50:57.432Z,13.40
2022-10-17T10:53:48.317Z,12.43
2022-10-17T10:56:21.741Z,11.23
2022-10-17T10:58:57.045Z,11.48
2022-10-17T11:01:34.218Z,12.90
2022-10-17T11:04:29.890Z,15.90
2022-10-17T11:07:06.700Z,12.27
2022-10-17T11:09:50.424Z,12.48
2022-10-17T11:12:26.125Z,12.05
2022-10-17T11:15:02.543Z,13.02
2022-10-17T11:17:40.131Z,12.38
2022-10-17T11:20:20.959Z,12.75
2022-10-17T11:22:53.415Z,11.57
2022-10-17T11:25:35.077Z,13.02
2022-10-17T11:28:05.463Z,14.07
2022-10-17T11:30:47.125Z,15.00
2022-10-17T11:33:25.842Z,11.90
2022-10-17T11:35:59.112Z,11.18
2022-10-17T11:38:52.591Z,15.50
2022-10-17T11:41:31.104Z,11.23
2022-10-17T11:44:06.815Z,11.40
2022-10-17T11:46:37.511Z,10.23
2022-10-17T11:49:19.831Z,9.75
2022-10-17T11:52:02.068Z,10.25
2022-10-17T11:54:39.293Z,10.98
2022-10-17T11:57:43.291Z,9.55
2022-10-17T12:00:35.762Z,16.60
2022-10-17T12:03:24.087Z,11.85
2022-10-17T12:05:58.900Z,10.50
2022-10-17T12:08:37.644Z,13.23
2022-10-17T12:11:16.283Z,11.55
2022-10-17T12:13:56.348Z,10.25
2022-10-17T12:16:51.673Z,10.35
2022-10-17T12:19:28.769Z,12.13
2022-10-17T12:22:14.367Z,10.98
2022-10-17T12:24:46.007Z,9.45
2022-10-17T12:27:46.143Z,10.52
2022-10-17T12:30:25.953Z,10.85
2022-10-17T12:33:08.457Z,10.00
2022-10-17T12:35:39.133Z,10.43
2022-10-17T12:38:26.595Z,9.88
2022-10-17T12:41:00.675Z,10.45
2022-10-17T12:43:48.441Z,11.80
2022-10-17T12:47:00.143Z,8.88
2022-10-17T12:49:53.089Z,8.93
2022-10-17T12:52:48.653Z,9.05
2022-10-17T12:55:19.709Z,11.70
2022-10-17T12:57:58.663Z,9.88
2022-10-17T13:00:36.040Z,9.93
2022-10-17T13:03:14.191Z,11.68
2022-10-17T13:05:49.900Z,12.57
2022-10-17T13:08:25.956Z,10.75
2022-10-17T13:10:56.288Z,9.50
2022-10-17T13:13:35.691Z,11.60
2022-10-17T13:16:04.344Z,9.50
2022-10-17T13:18:34.274Z,12.30
2022-10-17T13:21:05.410Z,9.52
2022-10-17T13:23:36.768Z,9.18
2022-10-17T13:26:25.411Z,9.23
2022-10-17T13:29:05.845Z,9.18
2022-10-17T13:31:37.286Z,8.55
2022-10-17T13:34:16.849Z,8.18
2022-10-17T13:36:49.028Z,9.32
2022-10-17T13:39:32.363Z,9.32
2022-10-17T13:42:24.083Z,7.65
2022-10-17T13:44:53.160Z,8.88
2022-10-17T13:47:24.853Z,8.45
2022-10-17T13:49:55.931Z,9.13
2022-10-17T13:52:27.856Z,8.52
2022-10-17T13:55:08.202Z,7.63
2022-10-17T13:57:36.714Z,9.45
2022-10-17T14:00:16.618Z,8.07
2022-10-17T14:02:45.107Z,7.25
2022-10-17T14:05:19.460Z,8.73
2022-10-17T14:08:12.664Z,8.63
2022-10-17T14:10:44.474Z,10.68
2022-10-17T14:13:23.885Z,13.45
2022-10-17T14:15:53.991Z,10.50
2022-10-17T14:18:34.836Z,11.50
2022-10-17T14:24:16.786Z,8.73
2022-10-17T14:26:51.052Z,9.30
2022-10-17T14:29:25.965Z,8.55
2022-10-17T14:32:02.830Z,9.05
2022-10-17T14:34:35.266Z,8.45
2022-10-17T14:37:11.528Z,8.55
2022-10-17T14:39:40.292Z,7.80
2022-10-17T14:42:17.397Z,10.00
2022-10-17T14:44:51.887Z,7.97
2022-10-17T14:50:25.945Z,8.38
2022-10-17T14:53:06.339Z,6.75
2022-10-17T14:55:36.861Z,8.40
2022-10-17T14:58:18.201Z,8.40
2022-10-17T15:00:46.627Z,8.93
2022-10-17T15:03:15.099Z,8.73
2022-10-17T15:05:43.840Z,8.70
2022-10-17T15:08:16.010Z,9.02
2022-10-17T15:10:45.488Z,7.25
2022-10-17T15:13:32.369Z,8.23
2022-10-17T15:16:03.131Z,8.88
2022-10-17T15:18:32.423Z,7.20
2022-10-17T15:21:05.405Z,6.13
2022-10-17T15:23:42.698Z,7.20
2022-10-17T15:26:17.992Z,7.47
2022-10-17T15:28:47.584Z,7.35
2022-10-17T15:31:19.333Z,8.52
2022-10-17T15:33:48.421Z,8.98
2022-10-17T15:36:26.634Z,6.30
2022-10-17T15:38:58.104Z,5.80
2022-10-17T15:41:28.885Z,10.40
2022-10-17T15:43:57.957Z,7.20
2022-10-17T15:46:28.911Z,6.75
2022-10-17T15:49:02.635Z,7.45
2022-10-17T15:51:31.123Z,7.07
2022-10-17T15:54:01.689Z,7.60
2022-10-17T15:56:35.985Z,6.55
2022-10-17T15:59:05.690Z,6.53
2022-10-17T16:01:35.523Z,10.40
2022-10-17T16:04:04.260Z,6.18
2022-10-17T16:06:32.689Z,5.53
2022-10-17T16:09:02.505Z,7.60
2022-10-17T16:11:34.706Z,5.40
2022-10-17T16:14:06.357Z,8.57
2022-10-17T16:16:35.334Z,7.30
2022-10-17T16:19:04.827Z,6.20
2022-10-17T16:21:36.017Z,4.90
2022-10-17T16:24:07.048Z,6.65
2022-10-17T16:26:35.505Z,6.10
2022-10-17T16:29:04.933Z,10.52
2022-10-17T16:31:36.470Z,5.07
2022-10-17T16:34:06.552Z,6.47
2022-10-17T16:36:34.980Z,6.30
2022-10-17T16:39:03.472Z,5.88
2022-10-17T16:41:35.750Z,7.13
2022-10-17T16:44:07.243Z,4.80
2022-10-17T16:46:38.480Z,6.10
2022-10-17T16:49:08.099Z,6.07
2022-10-17T16:51:36.958Z,6.03
2022-10-17T16:54:05.770Z,5.55
2022-10-17T16:56:35.517Z,6.10
2022-10-17T16:59:04.293Z,6.78
2022-10-17T17:01:32.970Z,5.38
2022-10-17T17:04:04.532Z,4.15
2022-10-17T17:06:33.587Z,9.25
2022-10-17T17:09:03.184Z,5.32
2022-10-17T17:11:32.894Z,6.75
2022-10-17T17:14:05.969Z,5.68
2022-10-17T17:16:36.169Z,4.82
2022-10-17T17:19:08.638Z,5.22
2022-10-17T17:21:39.470Z,5.53
2022-10-17T17:24:08.353Z,4.95
2022-10-17T17:26:37.802Z,5.13
2022-10-17T17:29:09.188Z,6.13
2022-10-17T17:31:40.366Z,6.47
2022-10-17T17:34:12.079Z,6.60
2022-10-17T17:36:44.769Z,5.03
2022-10-17T17:39:16.978Z,5.82
2022-10-17T17:41:46.912Z,5.25
2022-10-17T17:44:17.343Z,8.80
2022-10-17T17:46:48.217Z,6.15
2022-10-17T17:49:17.861Z,5.22
2022-10-17T17:51:50.035Z,6.43
2022-10-17T17:54:24.292Z,4.95
2022-10-17T17:56:53.739Z,8.00
2022-10-17T17:59:24.769Z,5.85
2022-10-17T18:01:53.787Z,5.72
2022-10-17T18:04:22.869Z,5.72
2022-10-17T18:06:52.036Z,5.55
2022-10-17T18:09:21.768Z,5.55
2022-10-17T18:11:50.905Z,6.25
2022-10-17T18:14:24.256Z,8.85
2022-10-17T18:16:58.786Z,6.70
2022-10-17T18:19:28.825Z,6.43
2022-10-17T18:21:58.553Z,6.43
2022-10-17T18:24:29.252Z,6.82
2022-10-17T18:27:00.423Z,5.43
2022-10-17T18:29:33.157Z,6.22
2022-10-17T18:32:05.147Z,6.20
2022-10-17T18:34:36.641Z,4.55
2022-10-17T18:37:07.665Z,5.68
2022-10-17T18:39:38.422Z,7.00
2022-10-17T18:42:12.055Z,7.10
2022-10-17T18:44:41.810Z,5.50
2022-10-17T18:47:14.605Z,9.10
2022-10-17T18:49:45.981Z,5.68
2022-10-17T18:52:16.159Z,6.20
2022-10-17T18:54:46.051Z,6.07
2022-10-17T18:57:16.604Z,6.72
2022-10-17T18:59:45.804Z,6.65
2022-10-17T19:02:19.429Z,10.23
2022-10-17T19:07:22.972Z,6.60
2022-10-17T19:09:52.427Z,5.43
2022-10-17T19:12:22.408Z,5.85
2022-10-17T19:14:53.157Z,8.05
2022-10-17T19:17:23.046Z,7.10
2022-10-17T19:19:53.732Z,6.38
2022-10-17T19:22:22.616Z,9.70
2022-10-17T19:24:54.932Z,6.75
2022-10-17T19:27:23.353Z,8.63
2022-10-17T19:29:52.168Z,9.80
2022-10-17T19:32:23.250Z,9.63
2022-10-17T19:34:52.207Z,8.20
2022-10-17T19:37:20.845Z,6.40
2022-10-17T19:39:50.477Z,7.32
2022-10-17T19:42:20.052Z,7.30
2022-10-17T19:44:50.384Z,6.82
2022-10-17T19:47:19.875Z,6.75
2022-10-17T19:49:50.201Z,6.88
2022-10-17T19:52:19.191Z,9.55
2022-10-17T19:54:50.993Z,7.22
2022-10-17T19:57:21.058Z,6.95
2022-10-17T19:59:53.636Z,5.85
2022-10-17T20:02:28.174Z,6.00
2022-10-17T20:05:17.590Z,6.30
2022-10-17T20:07:46.777Z,7.75
2022-10-17T20:10:18.605Z,6.65
2022-10-17T20:12:47.453Z,7.22
2022-10-17T20:15:16.647Z,7.85
2022-10-17T20:17:45.427Z,8.60
2022-10-17T20:20:15.289Z,6.63
2022-10-17T20:22:43.980Z,7.65
2022-10-17T20:25:12.918Z,8.25
2022-10-17T20:27:41.450Z,7.32
2022-10-17T20:30:13.860Z,5.38
2022-10-17T20:32:42.309Z,6.90
2022-10-17T20:35:11.421Z,7.40
2022-10-17T20:37:42.735Z,6.85
2022-10-17T20:43:00.942Z,7.00
2022-10-17T20:45:43.743Z,6.80
2022-10-17T20:48:18.079Z,7.40
2022-10-17T20:50:46.589Z,7.15
2022-10-17T20:53:35.997Z,8.10
2022-10-17T20:56:08.255Z,5.63
2022-10-17T20:58:37.018Z,6.72
2022-10-17T21:01:09.758Z,8.18
2022-10-17T21:03:42.302Z,7.55
2022-10-17T21:06:14.180Z,7.22
2022-10-17T21:08:44.853Z,5.57
2022-10-17T21:11:16.930Z,7.28
2022-10-17T21:13:46.278Z,6.88
2022-10-17T21:16:17.631Z,5.47
2022-10-17T21:18:46.754Z,8.60
2022-10-17T21:21:17.920Z,5.72
2022-10-17T21:23:49.947Z,9.48
2022-10-17T21:26:19.943Z,7.00
2022-10-17T21:28:49.952Z,9.02
2022-10-17T21:31:20.899Z,12.90
2022-10-17T21:33:52.419Z,7.15
2022-10-17T21:36:21.657Z,9.32
2022-10-17T21:38:54.880Z,6.45
2022-10-17T21:41:26.256Z,6.68
2022-10-17T21:43:56.342Z,8.25
2022-10-17T21:46:25.136Z,6.85
2022-10-17T21:48:53.982Z,7.82
2022-10-17T21:51:25.095Z,6.15
2022-10-17T21:53:57.803Z,6.70
2022-10-17T21:56:28.981Z,6.80
2022-10-17T21:58:58.281Z,7.47
2022-10-17T22:01:29.743Z,5.20
2022-10-17T22:04:00.542Z,5.80
2022-10-17T22:06:40.083Z,4.93
2022-10-17T22:09:14.642Z,5.82
2022-10-17T22:11:45.099Z,5.47
2022-10-17T22:14:16.388Z,7.45
2022-10-17T22:16:46.458Z,6.78
2022-10-17T22:19:18.266Z,5.53
2022-10-17T22:21:46.958Z,6.03
2022-10-17T22:24:19.342Z,5.68
2022-10-17T22:26:48.538Z,4.88
2022-10-17T22:29:17.029Z,8.30
2022-10-17T22:31:45.917Z,8.88
2022-10-17T22:34:16.926Z,5.40
2022-10-17T22:36:47.702Z,6.22
2022-10-17T22:39:17.649Z,6.75
2022-10-17T22:41:46.045Z,6.80
2022-10-17T22:44:14.579Z,8.38
2022-10-17T22:46:42.947Z,8.85
2022-10-17T22:49:11.391Z,8.45
2022-10-17T22:51:39.738Z,7.05
2022-10-17T22:54:08.087Z,5.50
2022-10-17T22:56:37.884Z,4.78
2022-10-17T22:59:06.283Z,6.57
2022-10-17T23:01:34.718Z,6.75
2022-10-17T23:04:03.110Z,6.85
2022-10-17T23:06:31.537Z,6.95
2022-10-17T23:08:59.920Z,6.03
2022-10-17T23:11:28.437Z,9.52
2022-10-17T23:13:58.140Z,7.32
2022-10-17T23:16:26.644Z,7.22
2022-10-17T23:18:54.969Z,6.10
2022-10-17T23:21:23.900Z,6.97
2022-10-17T23:23:52.243Z,8.68
2022-10-17T23:26:20.618Z,7.03
2022-10-17T23:28:49.119Z,13.63
2022-10-17T23:31:21.322Z,8.00
2022-10-17T23:33:50.812Z,7.63
2022-10-17T23:36:21.552Z,7.85
2022-10-17T23:38:52.666Z,8.10
2022-10-17T23:41:23.422Z,10.23
2022-10-17T23:43:52.219Z,8.07
2022-10-17T23:46:21.958Z,9.15
2022-10-17T23:48:50.467Z,8.75
2022-10-17T23:51:18.892Z,7.85
2022-10-17T23:53:47.344Z,9.57
2022-10-17T23:56:16.121Z,8.90
2022-10-17T23:58:44.550Z,7.40
